createdAt,value
2019-01-27T00:01:49.419Z,35.30
2019-01-27T00:04:16.907Z,32.90
2019-01-27T00:06:44.386Z,35.65
2019-01-27T00:09:11.902Z,37.15
2019-01-27T00:11:39.383Z,35.33
2019-01-27T00:14:06.953Z,35.28
2019-01-27T00:16:34.449Z,35.95
2019-01-27T00:19:01.940Z,36.08
2019-01-27T00:21:29.402Z,35.30
2019-01-27T00:23:56.900Z,37.75
2019-01-27T00:26:24.354Z,38.10
2019-01-27T00:28:51.751Z,34.70
2019-01-27T00:31:19.269Z,35.88
2019-01-27T00:33:46.727Z,33.50
2019-01-27T00:36:14.199Z,34.67
2019-01-27T00:38:41.691Z,34.23
2019-01-27T00:41:09.223Z,36.13
2019-01-27T00:43:36.766Z,35.65
2019-01-27T00:46:04.564Z,37.23
2019-01-27T00:48:32.030Z,35.70
2019-01-27T00:50:59.507Z,33.20
2019-01-27T00:53:26.995Z,36.58
2019-01-27T00:55:54.463Z,33.75
2019-01-27T00:58:21.938Z,36.28
2019-01-27T01:00:49.513Z,34.38
2019-01-27T01:03:17.259Z,36.00
2019-01-27T01:05:44.723Z,35.45
2019-01-27T01:08:12.393Z,35.45
2019-01-27T01:10:39.944Z,36.48
2019-01-27T01:13:07.419Z,36.40
2019-01-27T01:15:34.922Z,35.63
2019-01-27T01:18:02.460Z,37.23
2019-01-27T01:20:29.927Z,37.48
2019-01-27T01:22:57.494Z,36.50
2019-01-27T01:25:25.559Z,37.60
2019-01-27T01:27:53.032Z,37.53
2019-01-27T01:30:27.815Z,36.03
2019-01-27T01:32:55.383Z,36.13
2019-01-27T01:35:22.870Z,35.43
2019-01-27T01:37:50.444Z,35.38
2019-01-27T01:40:18.408Z,34.27
2019-01-27T01:42:45.980Z,33.08
2019-01-27T01:45:14.953Z,34.03
2019-01-27T01:47:42.432Z,33.70
2019-01-27T01:50:09.907Z,31.15
2019-01-27T01:52:37.400Z,34.13
2019-01-27T01:55:05.655Z,32.95
2019-01-27T01:57:33.137Z,30.12
2019-01-27T02:00:00.642Z,33.48
2019-01-27T02:02:28.202Z,34.25
2019-01-27T02:04:55.673Z,33.45
2019-01-27T02:07:23.172Z,34.25
2019-01-27T02:09:50.648Z,33.40
2019-01-27T02:12:18.192Z,34.53
2019-01-27T02:14:45.805Z,34.25
2019-01-27T02:17:13.275Z,32.40
2019-01-27T02:19:40.734Z,32.93
2019-01-27T02:22:08.251Z,32.53
2019-01-27T02:24:35.724Z,33.30
2019-01-27T02:27:03.342Z,32.23
2019-01-27T02:29:30.845Z,32.58
2019-01-27T02:31:58.378Z,32.40
2019-01-27T02:34:25.850Z,30.82
2019-01-27T02:36:53.339Z,29.98
2019-01-27T02:39:20.817Z,28.12
2019-01-27T02:41:48.311Z,30.32
2019-01-27T02:44:15.787Z,28.60
2019-01-27T02:46:43.257Z,28.12
2019-01-27T02:49:10.732Z,27.07
2019-01-27T02:51:38.217Z,22.87
2019-01-27T02:54:05.827Z,24.43
2019-01-27T02:56:33.283Z,26.85
2019-01-27T02:59:00.778Z,24.35
2019-01-27T03:01:28.252Z,26.37
2019-01-27T03:03:55.718Z,25.97
2019-01-27T03:06:27.558Z,25.20
2019-01-27T03:08:56.098Z,21.27
2019-01-27T03:11:23.627Z,19.45
2019-01-27T03:13:51.203Z,20.48
2019-01-27T03:16:18.738Z,21.27
2019-01-27T03:18:46.199Z,22.07
2019-01-27T03:21:13.692Z,23.20
2019-01-27T03:23:41.170Z,22.17
2019-01-27T03:26:08.706Z,23.25
2019-01-27T03:28:36.190Z,23.75
2019-01-27T03:31:05.396Z,21.15
2019-01-27T03:33:32.890Z,23.92
2019-01-27T03:36:00.351Z,23.80
2019-01-27T03:38:27.819Z,21.95
2019-01-27T03:40:55.320Z,22.98
2019-01-27T03:43:22.788Z,24.37
2019-01-27T03:45:50.255Z,23.18
2019-01-27T03:48:17.763Z,22.27
2019-01-27T03:50:45.230Z,22.80
2019-01-27T03:53:12.705Z,24.57
2019-01-27T03:55:40.194Z,22.82
2019-01-27T03:58:07.702Z,24.20
2019-01-27T04:00:35.183Z,24.35
2019-01-27T04:03:02.647Z,25.25
2019-01-27T04:05:30.228Z,23.65
2019-01-27T04:07:57.697Z,25.48
2019-01-27T04:10:25.960Z,25.52
2019-01-27T04:12:53.688Z,28.15
2019-01-27T04:15:21.267Z,25.88
2019-01-27T04:17:48.733Z,28.55
2019-01-27T04:20:17.338Z,27.05
2019-01-27T04:22:45.005Z,26.10
2019-01-27T04:25:12.972Z,26.65
2019-01-27T04:27:40.454Z,29.70
2019-01-27T04:30:09.323Z,28.42
2019-01-27T04:32:37.036Z,30.30
2019-01-27T04:35:06.002Z,29.63
2019-01-27T04:37:33.458Z,27.55
2019-01-27T04:40:00.934Z,29.55
2019-01-27T04:42:28.429Z,27.75
2019-01-27T04:44:55.902Z,28.27
2019-01-27T04:47:23.374Z,30.77
2019-01-27T04:49:50.886Z,30.88
2019-01-27T04:52:18.280Z,30.95
2019-01-27T04:54:45.748Z,29.52
2019-01-27T04:57:13.273Z,30.77
2019-01-27T04:59:40.745Z,32.95
2019-01-27T05:02:08.282Z,30.70
2019-01-27T05:04:36.345Z,33.02
2019-01-27T05:07:03.924Z,32.05
2019-01-27T05:09:31.394Z,29.77
2019-01-27T05:11:58.892Z,31.95
2019-01-27T05:14:26.367Z,32.45
2019-01-27T05:16:53.832Z,28.90
2019-01-27T05:19:21.333Z,30.30
2019-01-27T05:21:48.808Z,29.65
2019-01-27T05:24:16.282Z,28.35
2019-01-27T05:26:43.831Z,32.23
2019-01-27T05:29:11.363Z,29.60
2019-01-27T05:31:38.832Z,30.68
2019-01-27T05:34:06.363Z,30.48
2019-01-27T05:36:33.855Z,33.10
2019-01-27T05:39:01.314Z,33.53
2019-01-27T05:41:28.777Z,30.43
2019-01-27T05:43:56.299Z,31.30
2019-01-27T05:46:23.795Z,30.32
2019-01-27T05:48:51.287Z,28.40
2019-01-27T05:51:18.750Z,29.20
2019-01-27T05:53:46.268Z,28.77
2019-01-27T05:56:13.767Z,28.17
2019-01-27T05:58:41.231Z,26.95
2019-01-27T06:01:08.794Z,28.27
2019-01-27T06:03:36.255Z,31.12
2019-01-27T06:06:03.835Z,28.80
2019-01-27T06:08:31.404Z,28.20
2019-01-27T06:10:58.888Z,32.00
2019-01-27T06:13:26.344Z,32.20
2019-01-27T06:15:53.843Z,31.07
2019-01-27T06:18:21.299Z,28.27
2019-01-27T06:20:48.765Z,31.25
2019-01-27T06:23:16.309Z,31.17
2019-01-27T06:25:43.743Z,30.95
2019-01-27T06:28:11.205Z,30.10
2019-01-27T06:30:38.684Z,29.65
2019-01-27T06:33:20.101Z,30.82
2019-01-27T06:35:47.578Z,29.52
2019-01-27T06:38:15.052Z,28.57
2019-01-27T06:40:42.521Z,28.83
2019-01-27T06:43:10.021Z,28.23
2019-01-27T06:45:37.481Z,28.77
2019-01-27T06:48:04.957Z,29.25
2019-01-27T06:50:32.446Z,30.48
2019-01-27T06:52:59.916Z,34.23
2019-01-27T06:55:27.400Z,31.20
2019-01-27T06:57:54.875Z,30.75
2019-01-27T07:00:33.560Z,32.45
2019-01-27T07:03:02.689Z,29.30
2019-01-27T07:05:37.847Z,31.42
2019-01-27T07:08:08.480Z,33.42
2019-01-27T07:10:46.504Z,30.95
2019-01-27T07:13:15.642Z,30.85
2019-01-27T07:15:50.724Z,30.55
2019-01-27T07:18:19.863Z,31.07
2019-01-27T07:20:58.146Z,32.90
2019-01-27T07:23:43.944Z,31.95
2019-01-27T07:26:16.010Z,30.70
2019-01-27T07:28:48.076Z,28.98
2019-01-27T07:31:20.019Z,30.52
2019-01-27T07:33:49.137Z,30.80
2019-01-27T07:36:18.287Z,31.35
2019-01-27T07:39:03.698Z,32.55
2019-01-27T07:41:41.836Z,33.48
2019-01-27T07:44:13.699Z,33.60
2019-01-27T07:46:48.655Z,31.85
2019-01-27T07:49:23.940Z,35.25
2019-01-27T07:51:53.083Z,33.73
2019-01-27T07:54:27.920Z,34.53
2019-01-27T07:57:09.074Z,34.23
2019-01-27T07:59:40.912Z,35.40
2019-01-27T08:02:10.023Z,35.78
2019-01-27T08:04:48.337Z,36.70
2019-01-27T08:07:32.777Z,39.55
2019-01-27T08:10:14.688Z,36.93
2019-01-27T08:13:00.469Z,38.42
2019-01-27T08:15:39.649Z,37.38
2019-01-27T08:18:08.810Z,37.53
2019-01-27T08:20:49.911Z,34.70
2019-01-27T08:23:25.213Z,36.05
2019-01-27T08:25:54.359Z,41.35
2019-01-27T08:28:26.641Z,37.95
2019-01-27T08:31:01.796Z,36.68
2019-01-27T08:33:34.034Z,36.70
2019-01-27T08:36:03.224Z,38.55
2019-01-27T08:38:32.344Z,36.95
2019-01-27T08:41:07.673Z,38.88
2019-01-27T08:43:36.807Z,35.70
2019-01-27T08:46:05.929Z,34.70
2019-01-27T08:48:33.453Z,38.73
2019-01-27T08:51:00.926Z,39.70
2019-01-27T08:53:28.463Z,38.00
2019-01-27T08:55:56.064Z,37.85
2019-01-27T08:58:23.636Z,36.35
2019-01-27T09:00:52.745Z,36.70
2019-01-27T09:03:24.592Z,35.55
2019-01-27T09:05:53.823Z,36.28
2019-01-27T09:08:22.948Z,35.03
2019-01-27T09:10:58.211Z,37.70
2019-01-27T09:13:33.044Z,33.60
2019-01-27T09:16:04.942Z,37.30
2019-01-27T09:18:49.139Z,36.05
2019-01-27T09:21:30.249Z,38.33
2019-01-27T09:24:05.438Z,37.75
2019-01-27T09:26:37.533Z,38.28
2019-01-27T09:29:06.673Z,42.38
2019-01-27T09:31:53.975Z,39.92
2019-01-27T09:34:26.084Z,39.90
2019-01-27T09:37:04.270Z,40.33
2019-01-27T09:39:49.537Z,42.10
2019-01-27T09:42:21.855Z,38.42
2019-01-27T09:44:51.015Z,38.48
2019-01-27T09:47:23.215Z,42.08
2019-01-27T09:49:52.371Z,40.10
2019-01-27T09:52:21.490Z,40.38
2019-01-27T09:55:07.431Z,38.30
2019-01-27T09:57:54.848Z,39.63
2019-01-27T10:00:24.088Z,40.00
2019-01-27T10:02:53.190Z,42.93
2019-01-27T10:05:22.333Z,40.40
2019-01-27T10:07:57.329Z,41.02
2019-01-27T10:10:26.450Z,40.17
2019-01-27T10:12:55.589Z,36.53
2019-01-27T10:15:39.503Z,40.78
2019-01-27T10:18:14.466Z,40.20
2019-01-27T10:20:46.284Z,41.80
2019-01-27T10:23:15.555Z,42.20
2019-01-27T10:26:02.746Z,42.87
2019-01-27T10:28:34.712Z,43.27
2019-01-27T10:31:06.408Z,41.40
2019-01-27T10:33:35.544Z,42.37
2019-01-27T10:36:10.639Z,41.47
2019-01-27T10:38:42.479Z,45.50
2019-01-27T10:41:14.587Z,41.87
2019-01-27T10:43:58.466Z,39.40
2019-01-27T10:46:27.673Z,42.30
2019-01-27T10:48:59.788Z,45.40
2019-01-27T10:51:31.973Z,42.73
2019-01-27T10:54:03.861Z,40.27
2019-01-27T10:56:39.058Z,44.07
2019-01-27T10:59:14.292Z,43.70
2019-01-27T11:01:55.518Z,43.60
2019-01-27T11:04:33.664Z,43.60
2019-01-27T11:07:04.346Z,44.70
2019-01-27T11:09:33.479Z,42.03
2019-01-27T11:12:08.501Z,42.67
2019-01-27T11:14:37.613Z,42.60
2019-01-27T11:17:12.484Z,42.73
2019-01-27T11:19:56.556Z,40.60
2019-01-27T11:22:34.520Z,44.13
2019-01-27T11:25:20.087Z,46.70
2019-01-27T11:27:55.199Z,43.60
2019-01-27T11:30:39.521Z,42.10
2019-01-27T11:33:11.500Z,44.03
2019-01-27T11:35:40.611Z,41.80
2019-01-27T11:38:24.840Z,41.70
2019-01-27T11:40:56.679Z,41.30
2019-01-27T11:43:31.635Z,39.27
2019-01-27T11:46:03.525Z,38.03
2019-01-27T11:48:41.520Z,38.60
2019-01-27T11:51:10.650Z,37.60
2019-01-27T11:53:38.184Z,37.33
2019-01-27T11:56:05.750Z,40.00
2019-01-27T11:58:33.215Z,38.40
2019-01-27T12:01:02.358Z,37.07
2019-01-27T12:03:29.870Z,36.30
2019-01-27T12:05:57.801Z,35.63
2019-01-27T12:08:25.261Z,30.90
2019-01-27T12:10:52.765Z,33.67
2019-01-27T12:13:20.237Z,29.40
2019-01-27T12:15:47.756Z,31.97
2019-01-27T12:18:15.317Z,28.73
2019-01-27T12:20:42.790Z,29.90
2019-01-27T12:23:10.269Z,27.70
2019-01-27T12:25:37.756Z,28.70
2019-01-27T12:28:05.252Z,28.37
2019-01-27T12:30:32.725Z,28.77
2019-01-27T12:33:00.231Z,28.33
2019-01-27T12:35:27.724Z,28.80
2019-01-27T12:37:55.232Z,28.87
2019-01-27T12:40:26.819Z,28.93
2019-01-27T12:42:54.319Z,27.17
2019-01-27T12:45:21.891Z,25.30
2019-01-27T12:47:49.367Z,25.77
2019-01-27T12:50:17.766Z,26.30
2019-01-27T12:52:45.857Z,26.17
2019-01-27T12:55:13.837Z,29.37
2019-01-27T12:57:41.439Z,28.33
2019-01-27T13:00:10.667Z,31.00
2019-01-27T13:02:38.119Z,28.97
2019-01-27T13:05:10.234Z,31.23
2019-01-27T13:07:34.746Z,34.40
2019-01-27T13:10:02.228Z,34.77
2019-01-27T13:12:29.790Z,36.27
2019-01-27T13:14:57.250Z,33.47
2019-01-27T13:17:24.716Z,33.23
2019-01-27T13:19:53.826Z,32.07
2019-01-27T13:22:21.466Z,34.07
2019-01-27T13:24:48.930Z,33.40
2019-01-27T13:27:16.428Z,33.40
2019-01-27T13:29:43.978Z,33.40
2019-01-27T13:32:11.447Z,35.57
2019-01-27T13:34:38.869Z,35.03
2019-01-27T13:37:06.360Z,32.40
2019-01-27T13:39:33.832Z,34.03
2019-01-27T13:42:01.355Z,34.40
2019-01-27T13:44:28.911Z,31.83
2019-01-27T13:46:56.430Z,32.43
2019-01-27T13:49:23.938Z,28.20
2019-01-27T13:51:51.398Z,30.73
2019-01-27T13:54:18.980Z,30.80
2019-01-27T13:56:46.477Z,26.87
2019-01-27T13:59:13.961Z,27.23
2019-01-27T14:01:41.433Z,27.80
2019-01-27T14:04:08.936Z,25.70
2019-01-27T14:06:36.406Z,24.67
2019-01-27T14:09:06.034Z,25.60
2019-01-27T14:11:33.612Z,26.87
2019-01-27T14:14:01.093Z,24.13
2019-01-27T14:16:28.626Z,24.30
2019-01-27T14:18:57.298Z,22.90
2019-01-27T14:21:25.000Z,24.97
2019-01-27T14:23:52.501Z,24.40
2019-01-27T14:26:20.023Z,26.13
2019-01-27T14:28:47.500Z,24.73
2019-01-27T14:31:14.974Z,25.73
2019-01-27T14:33:42.513Z,26.37
2019-01-27T14:36:09.988Z,24.50
2019-01-27T14:38:37.569Z,26.20
2019-01-27T14:41:06.322Z,25.80
2019-01-27T14:43:33.959Z,24.87
2019-01-27T14:46:01.440Z,24.43
2019-01-27T14:48:29.039Z,22.90
2019-01-27T14:50:56.561Z,25.60
2019-01-27T14:53:24.033Z,24.80
2019-01-27T14:55:51.533Z,24.17
2019-01-27T14:58:19.061Z,24.30
2019-01-27T15:00:46.576Z,24.07
2019-01-27T15:03:14.432Z,23.47
2019-01-27T15:05:41.932Z,24.10
2019-01-27T15:08:09.398Z,25.30
2019-01-27T15:10:36.966Z,24.30
2019-01-27T15:13:04.871Z,23.37
2019-01-27T15:15:32.346Z,22.47
2019-01-27T15:17:59.946Z,22.23
2019-01-27T15:20:31.226Z,24.07
2019-01-27T15:22:58.710Z,25.57
2019-01-27T15:25:26.196Z,24.43
2019-01-27T15:27:53.698Z,22.63
2019-01-27T15:30:22.568Z,22.47
2019-01-27T15:32:50.036Z,20.43
2019-01-27T15:35:17.580Z,19.23
2019-01-27T15:37:45.086Z,20.77
2019-01-27T15:40:13.639Z,23.57
2019-01-27T15:42:41.108Z,23.27
2019-01-27T15:45:18.905Z,22.50
2019-01-27T15:47:46.377Z,24.67
2019-01-27T15:50:15.319Z,22.30
2019-01-27T15:52:42.828Z,23.00
2019-01-27T15:55:11.801Z,20.60
2019-01-27T15:57:39.279Z,20.00
2019-01-27T16:00:08.283Z,19.77
2019-01-27T16:02:35.848Z,22.43
2019-01-27T16:05:04.662Z,20.87
2019-01-27T16:07:32.199Z,20.47
2019-01-27T16:09:59.696Z,22.97
2019-01-27T16:12:27.206Z,20.50
2019-01-27T16:14:54.733Z,24.23
2019-01-27T16:17:22.210Z,19.60
2019-01-27T16:19:49.732Z,20.50
2019-01-27T16:22:17.283Z,19.67
2019-01-27T16:24:44.743Z,20.93
2019-01-27T16:27:12.277Z,21.47
2019-01-27T16:29:44.169Z,24.23
2019-01-27T16:32:13.452Z,21.30
2019-01-27T16:34:41.057Z,23.03
2019-01-27T16:37:08.556Z,23.87
2019-01-27T16:39:36.138Z,23.13
2019-01-27T16:42:03.561Z,25.40
2019-01-27T16:44:31.141Z,24.87
2019-01-27T16:46:58.673Z,23.83
2019-01-27T16:49:26.164Z,23.60
2019-01-27T16:51:53.754Z,20.43
2019-01-27T16:54:21.243Z,21.07
2019-01-27T16:56:48.782Z,22.87
2019-01-27T16:59:16.341Z,23.03
2019-01-27T17:01:43.820Z,23.83
2019-01-27T17:04:11.364Z,25.90
2019-01-27T17:06:38.903Z,24.40
2019-01-27T17:09:07.505Z,24.97
2019-01-27T17:11:35.013Z,24.57
2019-01-27T17:14:02.589Z,26.07
2019-01-27T17:16:30.070Z,26.50
2019-01-27T17:18:57.652Z,26.57
2019-01-27T17:21:25.129Z,25.77
2019-01-27T17:23:52.612Z,26.07
2019-01-27T17:26:20.137Z,24.47
2019-01-27T17:28:47.687Z,27.53
2019-01-27T17:31:15.216Z,29.10
2019-01-27T17:33:42.792Z,29.63
2019-01-27T17:36:10.341Z,27.20
2019-01-27T17:38:40.570Z,28.20
2019-01-27T17:41:07.064Z,26.43
2019-01-27T17:43:34.635Z,19.47
2019-01-27T17:46:02.115Z,19.63
2019-01-27T17:48:29.664Z,21.20
2019-01-27T17:50:57.153Z,21.30
2019-01-27T17:53:24.725Z,26.47
2019-01-27T17:55:52.306Z,24.10
2019-01-27T17:58:37.783Z,26.03
2019-01-27T18:01:10.025Z,26.70
2019-01-27T18:03:44.885Z,25.27
2019-01-27T18:06:16.743Z,25.93
2019-01-27T18:08:57.897Z,25.60
2019-01-27T18:11:27.055Z,25.30
2019-01-27T18:13:55.804Z,29.20
2019-01-27T18:16:23.325Z,26.40
2019-01-27T18:18:50.874Z,28.93
2019-01-27T18:21:18.455Z,26.50
2019-01-27T18:23:46.057Z,29.17
2019-01-27T18:26:13.563Z,30.33
2019-01-27T18:28:41.042Z,29.90
2019-01-27T18:31:08.589Z,29.37
2019-01-27T18:33:36.072Z,29.50
2019-01-27T18:36:04.163Z,29.57
2019-01-27T18:38:31.669Z,24.63
2019-01-27T18:40:59.175Z,23.27
2019-01-27T18:43:26.652Z,22.00
2019-01-27T18:45:54.238Z,23.17
2019-01-27T18:48:21.817Z,26.13
2019-01-27T18:50:49.289Z,24.37
2019-01-27T18:53:18.449Z,23.00
2019-01-27T18:55:47.557Z,26.37
2019-01-27T18:58:22.748Z,24.50
2019-01-27T19:00:51.881Z,30.80
2019-01-27T19:03:21.016Z,28.60
2019-01-27T19:05:50.174Z,29.10
2019-01-27T19:08:19.317Z,30.27
2019-01-27T19:10:48.480Z,28.17
2019-01-27T19:13:23.610Z,27.40
2019-01-27T19:15:52.757Z,30.10
2019-01-27T19:18:21.894Z,28.83
2019-01-27T19:21:09.529Z,29.43
2019-01-27T19:23:47.354Z,29.53
2019-01-27T19:26:16.525Z,29.27
2019-01-27T19:28:48.433Z,31.03
2019-01-27T19:31:17.567Z,31.70
2019-01-27T19:33:49.829Z,31.50
2019-01-27T19:36:27.993Z,31.83
2019-01-27T19:39:02.847Z,28.87
2019-01-27T19:41:32.006Z,29.83
2019-01-27T19:44:01.117Z,29.80
2019-01-27T19:46:48.447Z,26.87
2019-01-27T19:49:17.900Z,29.07
2019-01-27T19:52:01.833Z,29.80
2019-01-27T19:54:30.947Z,28.70
2019-01-27T19:57:05.860Z,31.37
2019-01-27T19:59:34.994Z,29.17
2019-01-27T20:02:06.940Z,31.80
2019-01-27T20:04:36.098Z,33.37
2019-01-27T20:07:13.963Z,30.50
2019-01-27T20:09:43.132Z,29.90
2019-01-27T20:12:15.205Z,32.50
2019-01-27T20:14:59.368Z,29.03
2019-01-27T20:17:40.474Z,29.30
2019-01-27T20:20:27.140Z,28.10
2019-01-27T20:23:12.333Z,27.33
2019-01-27T20:25:44.171Z,28.13
2019-01-27T20:28:16.270Z,27.80
2019-01-27T20:31:00.442Z,29.37
2019-01-27T20:33:32.396Z,27.40
2019-01-27T20:36:18.089Z,28.30
2019-01-27T20:38:59.387Z,29.60
2019-01-27T20:41:34.480Z,29.63
2019-01-27T20:44:09.680Z,32.20
2019-01-27T20:46:53.658Z,28.40
2019-01-27T20:49:38.149Z,30.67
2019-01-27T20:52:07.297Z,32.20
2019-01-27T20:54:39.311Z,31.20
2019-01-27T20:57:11.388Z,29.63
2019-01-27T20:59:40.585Z,28.13
2019-01-27T21:02:09.705Z,26.33
2019-01-27T21:04:47.637Z,23.17
2019-01-27T21:07:22.773Z,24.77
2019-01-27T21:09:54.535Z,25.03
2019-01-27T21:12:23.925Z,26.67
2019-01-27T21:15:05.240Z,27.50
2019-01-27T21:17:36.933Z,27.30
2019-01-27T21:20:06.092Z,28.80
2019-01-27T21:22:33.635Z,30.90
2019-01-27T21:25:01.192Z,27.77
2019-01-27T21:27:28.674Z,30.67
2019-01-27T21:29:57.473Z,30.47
2019-01-27T21:32:25.044Z,30.63
2019-01-27T21:34:52.519Z,29.63
2019-01-27T21:37:21.050Z,27.30
2019-01-27T21:39:48.683Z,27.90
2019-01-27T21:42:16.232Z,28.47
2019-01-27T21:44:43.730Z,29.63
2019-01-27T21:47:11.218Z,28.13
2019-01-27T21:49:38.711Z,29.17
2019-01-27T21:52:06.221Z,28.67
2019-01-27T21:54:33.695Z,29.50
2019-01-27T21:57:01.249Z,27.90
2019-01-27T21:59:28.765Z,29.80
2019-01-27T22:01:56.254Z,29.70
2019-01-27T22:04:23.829Z,29.10
2019-01-27T22:06:51.432Z,31.07
2019-01-27T22:09:18.979Z,28.17
2019-01-27T22:11:46.460Z,32.70
2019-01-27T22:14:13.975Z,31.33
2019-01-27T22:16:41.506Z,31.30
2019-01-27T22:19:09.051Z,31.37
2019-01-27T22:21:38.154Z,32.73
2019-01-27T22:24:05.653Z,30.77
2019-01-27T22:26:33.141Z,29.50
2019-01-27T22:29:00.676Z,32.30
2019-01-27T22:31:28.166Z,34.30
2019-01-27T22:33:55.640Z,33.40
2019-01-27T22:36:23.137Z,33.73
2019-01-27T22:38:50.703Z,34.77
2019-01-27T22:41:19.851Z,34.20
2019-01-27T22:43:47.325Z,33.10
2019-01-27T22:46:15.695Z,33.00
2019-01-27T22:48:43.344Z,30.83
2019-01-27T22:51:11.215Z,27.07
2019-01-27T22:53:38.674Z,28.97
2019-01-27T22:56:06.187Z,27.90
2019-01-27T22:58:33.731Z,28.90
2019-01-27T23:01:02.213Z,28.17
2019-01-27T23:03:30.674Z,30.73
2019-01-27T23:05:58.151Z,28.00
2019-01-27T23:08:25.703Z,28.97
2019-01-27T23:10:53.216Z,31.80
2019-01-27T23:13:20.762Z,32.97
2019-01-27T23:15:48.320Z,34.40
2019-01-27T23:18:15.892Z,34.47
2019-01-27T23:20:43.364Z,33.33
2019-01-27T23:23:10.836Z,33.70
2019-01-27T23:25:38.346Z,31.67
2019-01-27T23:28:05.827Z,33.10
2019-01-27T23:30:33.370Z,34.30
2019-01-27T23:33:00.892Z,36.17
2019-01-27T23:35:28.357Z,32.27
2019-01-27T23:37:55.840Z,34.40
2019-01-27T23:40:23.359Z,34.20
2019-01-27T23:42:50.906Z,31.90
2019-01-27T23:45:18.372Z,31.50
2019-01-27T23:47:45.966Z,33.30
2019-01-27T23:50:13.521Z,35.23
2019-01-27T23:52:41.026Z,31.10
2019-01-27T23:55:09.210Z,31.57
2019-01-27T23:57:36.902Z,32.50
